sensor_id;sensor_type;location;lat;lon;timestamp;temperature;humidity
21762;DHT22;11203;50.870;20.682;2022-09-21T00:01:59;8.30;99.90
21762;DHT22;11203;50.870;20.682;2022-09-21T00:04:25;7.50;99.90
21762;DHT22;11203;50.870;20.682;2022-09-21T00:06:51;8.20;99.90
21762;DHT22;11203;50.870;20.682;2022-09-21T00:09:17;7.40;99.90
21762;DHT22;11203;50.870;20.682;2022-09-21T00:11:46;7.50;99.90
21762;DHT22;11203;50.870;20.682;2022-09-21T00:14:13;7.50;99.90
21762;DHT22;11203;50.870;20.682;2022-09-21T00:16:42;7.50;99.90
21762;DHT22;11203;50.870;20.682;2022-09-21T00:19:09;7.50;99.90
21762;DHT22;11203;50.870;20.682;2022-09-21T00:21:35;7.50;99.90
21762;DHT22;11203;50.870;20.682;2022-09-21T00:24:03;7.50;99.90
21762;DHT22;11203;50.870;20.682;2022-09-21T00:26:30;7.40;99.90
21762;DHT22;11203;50.870;20.682;2022-09-21T00:28:59;7.60;99.90
21762;DHT22;11203;50.870;20.682;2022-09-21T00:31:27;7.50;99.90
21762;DHT22;11203;50.870;20.682;2022-09-21T00:33:54;7.50;99.90
21762;DHT22;11203;50.870;20.682;2022-09-21T00:36:22;7.50;99.90
21762;DHT22;11203;50.870;20.682;2022-09-21T00:38:51;7.70;99.90
21762;DHT22;11203;50.870;20.682;2022-09-21T00:41:19;7.50;99.90
21762;DHT22;11203;50.870;20.682;2022-09-21T00:43:48;7.50;99.90
21762;DHT22;11203;50.870;20.682;2022-09-21T00:46:33;7.60;99.90
21762;DHT22;11203;50.870;20.682;2022-09-21T00:49:02;7.50;99.90
21762;DHT22;11203;50.870;20.682;2022-09-21T00:51:28;7.50;99.90
21762;DHT22;11203;50.870;20.682;2022-09-21T00:54:00;7.50;99.90
21762;DHT22;11203;50.870;20.682;2022-09-21T00:56:29;7.60;99.90
21762;DHT22;11203;50.870;20.682;2022-09-21T00:58:56;7.50;99.90
21762;DHT22;11203;50.870;20.682;2022-09-21T01:01:22;7.50;99.90
21762;DHT22;11203;50.870;20.682;2022-09-21T01:03:50;7.50;99.90
21762;DHT22;11203;50.870;20.682;2022-09-21T01:06:18;7.60;99.90
21762;DHT22;11203;50.870;20.682;2022-09-21T01:08:47;7.50;99.90
21762;DHT22;11203;50.870;20.682;2022-09-21T01:14:47;7.50;99.90
21762;DHT22;11203;50.870;20.682;2022-09-21T01:20:19;7.40;99.90
21762;DHT22;11203;50.870;20.682;2022-09-21T01:29:11;7.60;99.90
21762;DHT22;11203;50.870;20.682;2022-09-21T01:34:37;7.40;99.90
21762;DHT22;11203;50.870;20.682;2022-09-21T01:37:20;7.40;99.90
21762;DHT22;11203;50.870;20.682;2022-09-21T01:40:00;7.50;99.90
21762;DHT22;11203;50.870;20.682;2022-09-21T01:42:32;7.50;99.90
21762;DHT22;11203;50.870;20.682;2022-09-21T01:45:01;7.50;99.90
21762;DHT22;11203;50.870;20.682;2022-09-21T01:47:29;7.60;99.90
21762;DHT22;11203;50.870;20.682;2022-09-21T01:50:00;7.60;99.90
21762;DHT22;11203;50.870;20.682;2022-09-21T01:52:39;7.60;99.90
21762;DHT22;11203;50.870;20.682;2022-09-21T01:55:15;7.60;99.90
21762;DHT22;11203;50.870;20.682;2022-09-21T01:58:04;7.60;99.90
21762;DHT22;11203;50.870;20.682;2022-09-21T02:00:36;7.60;99.90
21762;DHT22;11203;50.870;20.682;2022-09-21T02:03:15;7.80;99.90
21762;DHT22;11203;50.870;20.682;2022-09-21T02:05:47;7.70;99.90
21762;DHT22;11203;50.870;20.682;2022-09-21T02:08:13;7.80;99.90
21762;DHT22;11203;50.870;20.682;2022-09-21T02:10:47;7.70;99.90
21762;DHT22;11203;50.870;20.682;2022-09-21T02:13:16;7.80;99.90
21762;DHT22;11203;50.870;20.682;2022-09-21T02:21:30;7.90;99.90
21762;DHT22;11203;50.870;20.682;2022-09-21T02:27:06;7.90;99.90
21762;DHT22;11203;50.870;20.682;2022-09-21T02:41:16;8.10;99.90
21762;DHT22;11203;50.870;20.682;2022-09-21T02:44:27;8.00;99.90
21762;DHT22;11203;50.870;20.682;2022-09-21T02:47:07;8.00;99.90
21762;DHT22;11203;50.870;20.682;2022-09-21T02:49:40;8.10;99.90
21762;DHT22;11203;50.870;20.682;2022-09-21T02:52:14;8.10;99.90
21762;DHT22;11203;50.870;20.682;2022-09-21T02:54:43;8.20;99.90
21762;DHT22;11203;50.870;20.682;2022-09-21T02:57:14;8.10;99.90
21762;DHT22;11203;50.870;20.682;2022-09-21T02:59:41;8.10;99.90
21762;DHT22;11203;50.870;20.682;2022-09-21T03:02:09;8.00;99.90
21762;DHT22;11203;50.870;20.682;2022-09-21T03:04:39;8.10;99.90
21762;DHT22;11203;50.870;20.682;2022-09-21T03:07:06;8.20;99.90
21762;DHT22;11203;50.870;20.682;2022-09-21T03:09:33;8.10;99.90
21762;DHT22;11203;50.870;20.682;2022-09-21T03:11:59;8.10;99.90
21762;DHT22;11203;50.870;20.682;2022-09-21T03:14:25;8.10;99.90
21762;DHT22;11203;50.870;20.682;2022-09-21T03:16:51;8.20;99.90
21762;DHT22;11203;50.870;20.682;2022-09-21T03:19:17;8.20;99.90
21762;DHT22;11203;50.870;20.682;2022-09-21T03:21:43;8.10;99.90
21762;DHT22;11203;50.870;20.682;2022-09-21T03:24:09;8.20;99.90
21762;DHT22;11203;50.870;20.682;2022-09-21T03:26:35;8.30;99.90
21762;DHT22;11203;50.870;20.682;2022-09-21T03:29:02;8.20;99.90
21762;DHT22;11203;50.870;20.682;2022-09-21T03:31:28;8.20;99.90
21762;DHT22;11203;50.870;20.682;2022-09-21T03:33:56;8.20;99.90
21762;DHT22;11203;50.870;20.682;2022-09-21T03:36:22;8.20;99.90
21762;DHT22;11203;50.870;20.682;2022-09-21T03:38:48;8.30;99.90
21762;DHT22;11203;50.870;20.682;2022-09-21T03:41:14;8.30;99.90
21762;DHT22;11203;50.870;20.682;2022-09-21T03:43:40;8.30;99.90
21762;DHT22;11203;50.870;20.682;2022-09-21T03:46:06;8.20;99.90
21762;DHT22;11203;50.870;20.682;2022-09-21T03:48:32;8.20;99.90
21762;DHT22;11203;50.870;20.682;2022-09-21T03:50:58;8.30;99.90
21762;DHT22;11203;50.870;20.682;2022-09-21T03:53:24;8.30;99.90
21762;DHT22;11203;50.870;20.682;2022-09-21T03:55:50;8.30;99.90
21762;DHT22;11203;50.870;20.682;2022-09-21T03:58:16;8.30;99.90
21762;DHT22;11203;50.870;20.682;2022-09-21T04:00:42;8.30;99.90
21762;DHT22;11203;50.870;20.682;2022-09-21T04:03:08;8.30;99.90
21762;DHT22;11203;50.870;20.682;2022-09-21T04:05:34;8.30;99.90
21762;DHT22;11203;50.870;20.682;2022-09-21T04:08:00;8.40;99.90
21762;DHT22;11203;50.870;20.682;2022-09-21T04:10:27;8.40;99.90
21762;DHT22;11203;50.870;20.682;2022-09-21T04:13:00;8.40;99.90
21762;DHT22;11203;50.870;20.682;2022-09-21T04:15:27;8.40;99.90
21762;DHT22;11203;50.870;20.682;2022-09-21T04:17:54;8.40;99.90
21762;DHT22;11203;50.870;20.682;2022-09-21T04:20:21;8.40;99.90
21762;DHT22;11203;50.870;20.682;2022-09-21T04:22:47;8.50;99.90
21762;DHT22;11203;50.870;20.682;2022-09-21T04:25:13;8.40;99.90
21762;DHT22;11203;50.870;20.682;2022-09-21T04:27:40;8.40;99.90
21762;DHT22;11203;50.870;20.682;2022-09-21T04:30:07;8.40;99.90
21762;DHT22;11203;50.870;20.682;2022-09-21T04:32:35;8.50;99.90
21762;DHT22;11203;50.870;20.682;2022-09-21T04:35:01;8.40;99.90
21762;DHT22;11203;50.870;20.682;2022-09-21T04:37:27;8.40;99.90
21762;DHT22;11203;50.870;20.682;2022-09-21T04:39:53;8.50;99.90
21762;DHT22;11203;50.870;20.682;2022-09-21T04:42:19;8.40;99.90
21762;DHT22;11203;50.870;20.682;2022-09-21T04:44:45;8.50;99.90
21762;DHT22;11203;50.870;20.682;2022-09-21T04:47:11;8.40;99.90
21762;DHT22;11203;50.870;20.682;2022-09-21T04:49:37;8.50;99.90
21762;DHT22;11203;50.870;20.682;2022-09-21T04:52:03;8.40;99.90
21762;DHT22;11203;50.870;20.682;2022-09-21T04:54:30;8.50;99.90
21762;DHT22;11203;50.870;20.682;2022-09-21T04:56:56;8.50;99.90
21762;DHT22;11203;50.870;20.682;2022-09-21T04:59:22;8.50;99.90
21762;DHT22;11203;50.870;20.682;2022-09-21T05:01:48;8.50;99.90
21762;DHT22;11203;50.870;20.682;2022-09-21T05:04:15;8.60;99.90
21762;DHT22;11203;50.870;20.682;2022-09-21T05:06:41;8.50;99.90
21762;DHT22;11203;50.870;20.682;2022-09-21T05:09:07;8.50;99.90
21762;DHT22;11203;50.870;20.682;2022-09-21T05:11:52;8.60;99.90
21762;DHT22;11203;50.870;20.682;2022-09-21T05:14:19;8.50;99.90
21762;DHT22;11203;50.870;20.682;2022-09-21T05:16:44;8.50;99.90
21762;DHT22;11203;50.870;20.682;2022-09-21T05:19:15;8.50;99.90
21762;DHT22;11203;50.870;20.682;2022-09-21T05:21:41;8.50;99.90
21762;DHT22;11203;50.870;20.682;2022-09-21T05:24:08;8.50;99.90
21762;DHT22;11203;50.870;20.682;2022-09-21T05:26:34;8.50;99.90
21762;DHT22;11203;50.870;20.682;2022-09-21T05:29:00;8.50;99.90
21762;DHT22;11203;50.870;20.682;2022-09-21T05:40:54;8.50;99.90
21762;DHT22;11203;50.870;20.682;2022-09-21T05:43:21;8.40;99.90
21762;DHT22;11203;50.870;20.682;2022-09-21T05:45:59;8.40;99.90
21762;DHT22;11203;50.870;20.682;2022-09-21T05:48:40;8.40;99.90
21762;DHT22;11203;50.870;20.682;2022-09-21T05:51:22;8.40;99.90
21762;DHT22;11203;50.870;20.682;2022-09-21T06:04:58;8.30;99.90
21762;DHT22;11203;50.870;20.682;2022-09-21T06:07:26;8.40;99.90
21762;DHT22;11203;50.870;20.682;2022-09-21T06:09:51;8.40;99.90
21762;DHT22;11203;50.870;20.682;2022-09-21T06:12:19;8.40;99.90
21762;DHT22;11203;50.870;20.682;2022-09-21T06:14:45;8.40;99.90
21762;DHT22;11203;50.870;20.682;2022-09-21T06:17:11;8.50;99.90
21762;DHT22;11203;50.870;20.682;2022-09-21T06:19:37;8.40;99.90
21762;DHT22;11203;50.870;20.682;2022-09-21T06:22:03;8.40;99.90
21762;DHT22;11203;50.870;20.682;2022-09-21T06:24:29;8.50;99.90
21762;DHT22;11203;50.870;20.682;2022-09-21T06:26:56;8.30;99.90
21762;DHT22;11203;50.870;20.682;2022-09-21T06:29:22;8.50;99.90
21762;DHT22;11203;50.870;20.682;2022-09-21T06:31:51;8.60;99.90
21762;DHT22;11203;50.870;20.682;2022-09-21T06:34:17;8.50;99.90
21762;DHT22;11203;50.870;20.682;2022-09-21T06:36:43;8.60;99.90
21762;DHT22;11203;50.870;20.682;2022-09-21T06:39:10;8.50;99.90
21762;DHT22;11203;50.870;20.682;2022-09-21T06:41:36;8.50;99.90
21762;DHT22;11203;50.870;20.682;2022-09-21T06:44:02;8.60;99.90
21762;DHT22;11203;50.870;20.682;2022-09-21T06:46:28;8.60;99.90
21762;DHT22;11203;50.870;20.682;2022-09-21T06:48:55;8.60;99.90
21762;DHT22;11203;50.870;20.682;2022-09-21T06:51:20;8.70;99.90
21762;DHT22;11203;50.870;20.682;2022-09-21T06:53:52;8.70;99.90
21762;DHT22;11203;50.870;20.682;2022-09-21T06:56:19;8.70;99.90
21762;DHT22;11203;50.870;20.682;2022-09-21T06:58:45;8.80;99.90
21762;DHT22;11203;50.870;20.682;2022-09-21T07:01:13;8.70;99.90
21762;DHT22;11203;50.870;20.682;2022-09-21T07:03:41;8.70;99.90
21762;DHT22;11203;50.870;20.682;2022-09-21T07:06:08;8.80;99.90
21762;DHT22;11203;50.870;20.682;2022-09-21T07:08:41;8.90;99.90
21762;DHT22;11203;50.870;20.682;2022-09-21T07:11:09;8.90;99.90
21762;DHT22;11203;50.870;20.682;2022-09-21T07:13:35;9.00;99.90
21762;DHT22;11203;50.870;20.682;2022-09-21T07:16:06;9.00;99.90
21762;DHT22;11203;50.870;20.682;2022-09-21T07:18:33;9.00;99.90
21762;DHT22;11203;50.870;20.682;2022-09-21T07:21:07;9.20;99.90
21762;DHT22;11203;50.870;20.682;2022-09-21T07:23:34;9.10;99.90
21762;DHT22;11203;50.870;20.682;2022-09-21T07:26:06;9.30;99.90
21762;DHT22;11203;50.870;20.682;2022-09-21T07:28:34;9.20;99.90
21762;DHT22;11203;50.870;20.682;2022-09-21T07:31:13;9.30;99.90
21762;DHT22;11203;50.870;20.682;2022-09-21T07:33:43;9.20;99.90
21762;DHT22;11203;50.870;20.682;2022-09-21T07:36:13;9.10;99.90
21762;DHT22;11203;50.870;20.682;2022-09-21T07:38:41;9.20;99.90
21762;DHT22;11203;50.870;20.682;2022-09-21T07:41:09;9.30;99.90
21762;DHT22;11203;50.870;20.682;2022-09-21T07:43:39;9.30;99.90
21762;DHT22;11203;50.870;20.682;2022-09-21T07:46:07;9.30;99.90
21762;DHT22;11203;50.870;20.682;2022-09-21T07:48:35;9.30;99.90
21762;DHT22;11203;50.870;20.682;2022-09-21T07:51:04;9.50;99.90
21762;DHT22;11203;50.870;20.682;2022-09-21T07:53:36;9.60;99.90
21762;DHT22;11203;50.870;20.682;2022-09-21T07:56:05;9.80;99.90
21762;DHT22;11203;50.870;20.682;2022-09-21T07:58:36;9.70;99.90
21762;DHT22;11203;50.870;20.682;2022-09-21T08:01:21;9.80;99.90
21762;DHT22;11203;50.870;20.682;2022-09-21T08:03:53;9.60;99.90
21762;DHT22;11203;50.870;20.682;2022-09-21T08:06:21;9.60;99.90
21762;DHT22;11203;50.870;20.682;2022-09-21T08:08:50;9.60;99.90
21762;DHT22;11203;50.870;20.682;2022-09-21T08:11:19;9.70;99.90
21762;DHT22;11203;50.870;20.682;2022-09-21T08:13:47;9.70;99.90
21762;DHT22;11203;50.870;20.682;2022-09-21T08:16:16;9.80;99.90
21762;DHT22;11203;50.870;20.682;2022-09-21T08:18:42;9.80;99.90
21762;DHT22;11203;50.870;20.682;2022-09-21T08:21:10;9.90;99.90
21762;DHT22;11203;50.870;20.682;2022-09-21T08:23:36;9.90;99.90
21762;DHT22;11203;50.870;20.682;2022-09-21T08:26:07;10.10;99.90
21762;DHT22;11203;50.870;20.682;2022-09-21T08:28:35;10.10;99.90
21762;DHT22;11203;50.870;20.682;2022-09-21T08:31:03;10.30;99.90
21762;DHT22;11203;50.870;20.682;2022-09-21T08:33:33;10.30;99.90
21762;DHT22;11203;50.870;20.682;2022-09-21T08:36:00;10.30;99.90
21762;DHT22;11203;50.870;20.682;2022-09-21T08:38:32;10.40;99.90
21762;DHT22;11203;50.870;20.682;2022-09-21T08:41:00;10.40;99.90
21762;DHT22;11203;50.870;20.682;2022-09-21T08:43:37;10.40;99.90
21762;DHT22;11203;50.870;20.682;2022-09-21T08:46:12;10.30;99.90
21762;DHT22;11203;50.870;20.682;2022-09-21T08:48:47;10.40;99.90
21762;DHT22;11203;50.870;20.682;2022-09-21T08:51:20;10.50;99.90
21762;DHT22;11203;50.870;20.682;2022-09-21T08:53:52;10.60;99.90
21762;DHT22;11203;50.870;20.682;2022-09-21T08:56:24;10.70;99.90
21762;DHT22;11203;50.870;20.682;2022-09-21T08:58:51;10.60;99.90
21762;DHT22;11203;50.870;20.682;2022-09-21T09:13:00;11.00;99.90
21762;DHT22;11203;50.870;20.682;2022-09-21T09:21:05;11.20;99.90
21762;DHT22;11203;50.870;20.682;2022-09-21T09:23:42;11.10;99.90
21762;DHT22;11203;50.870;20.682;2022-09-21T09:26:19;11.20;99.90
21762;DHT22;11203;50.870;20.682;2022-09-21T09:28:52;11.30;99.90
21762;DHT22;11203;50.870;20.682;2022-09-21T09:31:26;11.40;99.90
21762;DHT22;11203;50.870;20.682;2022-09-21T09:34:17;11.30;99.90
21762;DHT22;11203;50.870;20.682;2022-09-21T09:36:53;11.50;99.90
21762;DHT22;11203;50.870;20.682;2022-09-21T09:39:23;11.50;99.90
21762;DHT22;11203;50.870;20.682;2022-09-21T09:50:54;12.10;99.90
21762;DHT22;11203;50.870;20.682;2022-09-21T09:53:23;12.20;99.90
21762;DHT22;11203;50.870;20.682;2022-09-21T09:55:53;12.20;99.90
21762;DHT22;11203;50.870;20.682;2022-09-21T09:58:48;12.00;99.90
21762;DHT22;11203;50.870;20.682;2022-09-21T10:04:05;11.80;99.90
21762;DHT22;11203;50.870;20.682;2022-09-21T10:06:36;11.80;99.90
21762;DHT22;11203;50.870;20.682;2022-09-21T10:09:35;11.80;99.90
21762;DHT22;11203;50.870;20.682;2022-09-21T10:12:24;11.80;99.90
21762;DHT22;11203;50.870;20.682;2022-09-21T10:14:56;11.80;99.90
21762;DHT22;11203;50.870;20.682;2022-09-21T10:17:27;11.80;99.90
21762;DHT22;11203;50.870;20.682;2022-09-21T10:20:04;11.80;99.90
21762;DHT22;11203;50.870;20.682;2022-09-21T10:22:31;11.90;99.90
21762;DHT22;11203;50.870;20.682;2022-09-21T10:24:57;11.90;99.90
21762;DHT22;11203;50.870;20.682;2022-09-21T10:27:28;12.10;99.90
21762;DHT22;11203;50.870;20.682;2022-09-21T10:29:59;12.10;99.90
21762;DHT22;11203;50.870;20.682;2022-09-21T10:32:27;12.00;99.90
21762;DHT22;11203;50.870;20.682;2022-09-21T10:37:35;11.60;99.90
21762;DHT22;11203;50.870;20.682;2022-09-21T10:40:27;11.40;99.90
21762;DHT22;11203;50.870;20.682;2022-09-21T10:42:57;11.40;99.90
21762;DHT22;11203;50.870;20.682;2022-09-21T10:45:24;11.30;99.90
21762;DHT22;11203;50.870;20.682;2022-09-21T10:50:46;11.40;99.90
21762;DHT22;11203;50.870;20.682;2022-09-21T10:53:29;11.40;99.90
21762;DHT22;11203;50.870;20.682;2022-09-21T10:56:13;11.60;99.90
21762;DHT22;11203;50.870;20.682;2022-09-21T11:01:57;11.70;99.90
21762;DHT22;11203;50.870;20.682;2022-09-21T11:04:47;11.90;99.90
21762;DHT22;11203;50.870;20.682;2022-09-21T11:07:29;12.00;99.90
21762;DHT22;11203;50.870;20.682;2022-09-21T11:10:18;12.10;99.90
21762;DHT22;11203;50.870;20.682;2022-09-21T11:25:14;12.60;99.90
21762;DHT22;11203;50.870;20.682;2022-09-21T11:28:04;12.50;99.90
21762;DHT22;11203;50.870;20.682;2022-09-21T11:34:02;12.50;99.90
21762;DHT22;11203;50.870;20.682;2022-09-21T11:39:52;12.80;99.90
21762;DHT22;11203;50.870;20.682;2022-09-21T11:45:36;12.90;99.90
21762;DHT22;11203;50.870;20.682;2022-09-21T11:50:54;13.10;51.40
21762;DHT22;11203;50.870;20.682;2022-09-21T11:56:48;13.00;13.60
21762;DHT22;11203;50.870;20.682;2022-09-21T12:00:06;12.90;15.20
21762;DHT22;11203;50.870;20.682;2022-09-21T12:06:16;12.80;12.10
21762;DHT22;11203;50.870;20.682;2022-09-21T12:09:25;12.80;34.80
21762;DHT22;11203;50.870;20.682;2022-09-21T12:12:40;12.80;11.60
21762;DHT22;11203;50.870;20.682;2022-09-21T12:18:06;13.00;25.20
21762;DHT22;11203;50.870;20.682;2022-09-21T12:20:54;13.10;42.30
21762;DHT22;11203;50.870;20.682;2022-09-21T12:23:50;13.10;1.00
21762;DHT22;11203;50.870;20.682;2022-09-21T12:26:33;13.20;1.00
21762;DHT22;11203;50.870;20.682;2022-09-21T12:34:46;13.50;1.00
21762;DHT22;11203;50.870;20.682;2022-09-21T12:37:32;13.50;1.00
21762;DHT22;11203;50.870;20.682;2022-09-21T12:40:14;13.50;1.00
21762;DHT22;11203;50.870;20.682;2022-09-21T12:48:41;13.50;99.90
21762;DHT22;11203;50.870;20.682;2022-09-21T12:53:59;13.30;1.00
21762;DHT22;11203;50.870;20.682;2022-09-21T12:56:47;13.30;1.00
21762;DHT22;11203;50.870;20.682;2022-09-21T12:59:38;13.10;99.90
21762;DHT22;11203;50.870;20.682;2022-09-21T13:05:37;12.90;99.90
21762;DHT22;11203;50.870;20.682;2022-09-21T13:08:15;12.90;1.00
21762;DHT22;11203;50.870;20.682;2022-09-21T13:11:16;12.90;1.00
21762;DHT22;11203;50.870;20.682;2022-09-21T13:13:51;13.10;1.00
21762;DHT22;11203;50.870;20.682;2022-09-21T13:16:33;13.10;1.00
21762;DHT22;11203;50.870;20.682;2022-09-21T13:21:38;13.10;1.00
21762;DHT22;11203;50.870;20.682;2022-09-21T13:24:06;13.10;43.40
21762;DHT22;11203;50.870;20.682;2022-09-21T13:26:56;13.20;99.90
21762;DHT22;11203;50.870;20.682;2022-09-21T13:29:30;13.20;99.90
21762;DHT22;11203;50.870;20.682;2022-09-21T13:34:42;13.40;1.00
21762;DHT22;11203;50.870;20.682;2022-09-21T13:47:45;13.60;1.00
21762;DHT22;11203;50.870;20.682;2022-09-21T13:50:28;13.70;1.00
21762;DHT22;11203;50.870;20.682;2022-09-21T13:52:58;13.70;99.90
21762;DHT22;11203;50.870;20.682;2022-09-21T13:55:34;13.70;1.00
21762;DHT22;11203;50.870;20.682;2022-09-21T13:58:06;13.60;1.00
21762;DHT22;11203;50.870;20.682;2022-09-21T14:03:38;13.70;1.00
21762;DHT22;11203;50.870;20.682;2022-09-21T14:06:24;13.60;1.00
21762;DHT22;11203;50.870;20.682;2022-09-21T14:11:39;13.70;1.00
21762;DHT22;11203;50.870;20.682;2022-09-21T14:27:28;13.60;1.00
21762;DHT22;11203;50.870;20.682;2022-09-21T14:30:15;13.60;83.90
21762;DHT22;11203;50.870;20.682;2022-09-21T14:33:31;13.60;99.90
21762;DHT22;11203;50.870;20.682;2022-09-21T14:35:39;13.50;99.90
21762;DHT22;11203;50.870;20.682;2022-09-21T14:38:17;13.60;1.00
21762;DHT22;11203;50.870;20.682;2022-09-21T14:40:48;13.50;1.00
21762;DHT22;11203;50.870;20.682;2022-09-21T14:43:36;13.50;99.90
21762;DHT22;11203;50.870;20.682;2022-09-21T15:02:10;12.70;1.00
21762;DHT22;11203;50.870;20.682;2022-09-21T15:08:01;12.40;1.00
21762;DHT22;11203;50.870;20.682;2022-09-21T15:14:26;12.10;1.00
21762;DHT22;11203;50.870;20.682;2022-09-21T15:16:58;12.00;1.00
21762;DHT22;11203;50.870;20.682;2022-09-21T15:19:27;11.90;1.00
21762;DHT22;11203;50.870;20.682;2022-09-21T15:22:19;11.90;1.00
21762;DHT22;11203;50.870;20.682;2022-09-21T15:24:56;11.80;1.00
21762;DHT22;11203;50.870;20.682;2022-09-21T15:27:28;11.80;99.90
21762;DHT22;11203;50.870;20.682;2022-09-21T15:30:00;11.80;99.90
21762;DHT22;11203;50.870;20.682;2022-09-21T15:32:36;11.80;99.90
21762;DHT22;11203;50.870;20.682;2022-09-21T15:37:47;11.90;99.90
21762;DHT22;11203;50.870;20.682;2022-09-21T15:40:19;11.90;99.90
21762;DHT22;11203;50.870;20.682;2022-09-21T15:45:36;12.00;1.00
21762;DHT22;11203;50.870;20.682;2022-09-21T15:48:10;12.00;1.00
21762;DHT22;11203;50.870;20.682;2022-09-21T15:50:39;11.90;99.90
21762;DHT22;11203;50.870;20.682;2022-09-21T15:53:14;12.00;1.00
21762;DHT22;11203;50.870;20.682;2022-09-21T15:55:50;12.00;1.00
21762;DHT22;11203;50.870;20.682;2022-09-21T15:58:34;12.00;99.90
21762;DHT22;11203;50.870;20.682;2022-09-21T16:01:31;11.90;99.90
21762;DHT22;11203;50.870;20.682;2022-09-21T16:04:17;11.90;1.00
21762;DHT22;11203;50.870;20.682;2022-09-21T16:07:03;11.90;1.00
21762;DHT22;11203;50.870;20.682;2022-09-21T16:09:43;11.80;96.30
21762;DHT22;11203;50.870;20.682;2022-09-21T16:18:02;11.60;74.30
21762;DHT22;11203;50.870;20.682;2022-09-21T16:20:45;11.50;99.90
21762;DHT22;11203;50.870;20.682;2022-09-21T16:23:29;11.50;99.90
21762;DHT22;11203;50.870;20.682;2022-09-21T16:25:57;11.50;99.90
21762;DHT22;11203;50.870;20.682;2022-09-21T16:28:38;11.40;6.40
21762;DHT22;11203;50.870;20.682;2022-09-21T16:39:00;11.40;1.00
21762;DHT22;11203;50.870;20.682;2022-09-21T16:41:52;11.30;99.90
21762;DHT22;11203;50.870;20.682;2022-09-21T16:44:21;11.30;1.00
21762;DHT22;11203;50.870;20.682;2022-09-21T16:46:58;11.30;1.00
21762;DHT22;11203;50.870;20.682;2022-09-21T16:49:28;11.30;1.00
21762;DHT22;11203;50.870;20.682;2022-09-21T16:51:59;11.20;16.90
21762;DHT22;11203;50.870;20.682;2022-09-21T16:54:27;11.20;99.90
21762;DHT22;11203;50.870;20.682;2022-09-21T16:56:55;11.20;99.90
21762;DHT22;11203;50.870;20.682;2022-09-21T16:59:24;11.20;1.00
21762;DHT22;11203;50.870;20.682;2022-09-21T17:01:55;11.10;1.00
21762;DHT22;11203;50.870;20.682;2022-09-21T17:04:23;10.90;99.90
21762;DHT22;11203;50.870;20.682;2022-09-21T17:06:52;10.90;1.00
21762;DHT22;11203;50.870;20.682;2022-09-21T17:09:24;10.80;1.00
21762;DHT22;11203;50.870;20.682;2022-09-21T17:12:03;10.80;1.00
21762;DHT22;11203;50.870;20.682;2022-09-21T17:14:33;10.70;1.00
21762;DHT22;11203;50.870;20.682;2022-09-21T17:20:07;10.50;1.00
21762;DHT22;11203;50.870;20.682;2022-09-21T17:22:41;10.40;81.00
21762;DHT22;11203;50.870;20.682;2022-09-21T17:25:09;10.30;99.90
21762;DHT22;11203;50.870;20.682;2022-09-21T17:27:35;10.30;99.90
21762;DHT22;11203;50.870;20.682;2022-09-21T17:30:01;10.30;1.00
21762;DHT22;11203;50.870;20.682;2022-09-21T17:32:28;10.20;1.00
21762;DHT22;11203;50.870;20.682;2022-09-21T17:37:55;10.20;1.00
21762;DHT22;11203;50.870;20.682;2022-09-21T17:40:22;10.10;1.00
21762;DHT22;11203;50.870;20.682;2022-09-21T17:42:50;10.10;1.00
21762;DHT22;11203;50.870;20.682;2022-09-21T17:45:31;10.10;1.00
21762;DHT22;11203;50.870;20.682;2022-09-21T17:48:03;10.10;1.00
21762;DHT22;11203;50.870;20.682;2022-09-21T17:50:30;10.10;1.00
21762;DHT22;11203;50.870;20.682;2022-09-21T17:52:57;10.00;1.00
21762;DHT22;11203;50.870;20.682;2022-09-21T17:55:46;10.10;1.00
21762;DHT22;11203;50.870;20.682;2022-09-21T18:01:52;10.10;1.00
21762;DHT22;11203;50.870;20.682;2022-09-21T18:04:06;10.00;1.00
21762;DHT22;11203;50.870;20.682;2022-09-21T18:06:33;10.00;1.00
21762;DHT22;11203;50.870;20.682;2022-09-21T18:08:59;10.00;1.00
21762;DHT22;11203;50.870;20.682;2022-09-21T18:11:43;10.00;1.00
21762;DHT22;11203;50.870;20.682;2022-09-21T18:17:46;10.00;6.90
21762;DHT22;11203;50.870;20.682;2022-09-21T18:26:06;10.00;99.90
21762;DHT22;11203;50.870;20.682;2022-09-21T18:46:39;10.10;99.90
21762;DHT22;11203;50.870;20.682;2022-09-21T18:52:56;10.00;99.90
21762;DHT22;11203;50.870;20.682;2022-09-21T18:55:37;10.10;99.90
21762;DHT22;11203;50.870;20.682;2022-09-21T18:58:03;10.00;99.90
21762;DHT22;11203;50.870;20.682;2022-09-21T19:00:30;10.10;99.90
21762;DHT22;11203;50.870;20.682;2022-09-21T19:03:06;10.00;99.90
21762;DHT22;11203;50.870;20.682;2022-09-21T19:05:37;10.00;99.90
21762;DHT22;11203;50.870;20.682;2022-09-21T19:11:25;10.00;99.90
21762;DHT22;11203;50.870;20.682;2022-09-21T19:14:55;10.00;99.90
21762;DHT22;11203;50.870;20.682;2022-09-21T19:17:36;10.00;99.90
21762;DHT22;11203;50.870;20.682;2022-09-21T19:23:35;10.00;99.90
21762;DHT22;11203;50.870;20.682;2022-09-21T19:32:29;9.90;99.90
21762;DHT22;11203;50.870;20.682;2022-09-21T19:35:11;9.90;99.90
21762;DHT22;11203;50.870;20.682;2022-09-21T19:37:38;9.90;99.90
21762;DHT22;11203;50.870;20.682;2022-09-21T19:40:05;9.90;99.90
21762;DHT22;11203;50.870;20.682;2022-09-21T19:45:41;9.90;99.90
21762;DHT22;11203;50.870;20.682;2022-09-21T19:48:16;9.90;99.90
21762;DHT22;11203;50.870;20.682;2022-09-21T19:50:55;9.90;99.90
21762;DHT22;11203;50.870;20.682;2022-09-21T19:53:24;9.90;99.90
21762;DHT22;11203;50.870;20.682;2022-09-21T19:56:18;9.80;99.90
21762;DHT22;11203;50.870;20.682;2022-09-21T19:59:03;9.80;99.90
21762;DHT22;11203;50.870;20.682;2022-09-21T20:01:55;9.70;99.90
21762;DHT22;11203;50.870;20.682;2022-09-21T20:04:55;9.70;99.90
21762;DHT22;11203;50.870;20.682;2022-09-21T20:07:37;9.70;99.90
21762;DHT22;11203;50.870;20.682;2022-09-21T20:15:58;9.70;99.90
21762;DHT22;11203;50.870;20.682;2022-09-21T20:21:16;9.70;99.90
21762;DHT22;11203;50.870;20.682;2022-09-21T20:23:45;9.70;99.90
21762;DHT22;11203;50.870;20.682;2022-09-21T20:26:21;9.70;99.90
21762;DHT22;11203;50.870;20.682;2022-09-21T20:28:53;9.70;99.90
21762;DHT22;11203;50.870;20.682;2022-09-21T20:31:21;9.70;99.90
21762;DHT22;11203;50.870;20.682;2022-09-21T20:33:49;9.70;99.90
21762;DHT22;11203;50.870;20.682;2022-09-21T20:36:16;9.70;99.90
21762;DHT22;11203;50.870;20.682;2022-09-21T20:38:42;9.70;99.90
21762;DHT22;11203;50.870;20.682;2022-09-21T20:41:13;9.70;99.90
21762;DHT22;11203;50.870;20.682;2022-09-21T20:43:41;9.70;99.90
21762;DHT22;11203;50.870;20.682;2022-09-21T20:46:10;9.70;99.90
21762;DHT22;11203;50.870;20.682;2022-09-21T20:48:37;9.70;99.90
21762;DHT22;11203;50.870;20.682;2022-09-21T20:51:04;9.60;99.90